Time;durP1;ratioP1;P1;durP2;ratioP2;P2;SDS_P1;SDS_P2;PMS_P1;PMS_P2;Temp;Humidity;BMP_temperature;BMP_pressure;BME280_temperature;BME280_humidity;BME280_pressure;Samples;Min_cycle;Max_cycle;Signal;HPM_P1;HPM_P2
2022/06/01 00:00:22;;;;;;;;;;;14.20;99.90;;;;;;5094392;28;20022;-71
2022/06/01 00:02:48;;;;;;;;;;;14.20;99.90;;;;;;5093116;28;19927;-72
2022/06/01 00:05:13;;;;;;;;;;;14.10;99.90;;;;;;5094604;28;19917;-72
2022/06/01 00:07:39;;;;;;;;;;;14.10;99.90;;;;;;5094546;28;19916;-71
2022/06/01 00:10:04;;;;;;;;;;;14.10;99.90;;;;;;5094463;28;20304;-71
2022/06/01 00:12:30;;;;;;;;;;;14.10;99.90;;;;;;5094403;28;19916;-71
2022/06/01 00:14:56;;;;;;;;;;;14.00;99.90;;;;;;5094385;28;19919;-72
2022/06/01 00:17:21;;;;;;;;;;;14.00;99.90;;;;;;5094338;28;19912;-72
2022/06/01 00:19:47;;;;;;;;;;;13.90;99.90;;;;;;5092868;28;19916;-72
2022/06/01 00:22:12;;;;;;;;;;;13.90;99.90;;;;;;5092626;28;20011;-72
2022/06/01 00:24:39;;;;;;;;;;;13.90;99.90;;;;;;5094058;28;19946;-73
2022/06/01 00:27:05;;;;;;;;;;;13.90;99.90;;;;;;5094062;28;19919;-73
2022/06/01 00:29:30;;;;;;;;;;;13.90;99.90;;;;;;5093995;28;19912;-73
2022/06/01 00:31:56;;;;;;;;;;;13.90;99.90;;;;;;5093975;28;20015;-72
2022/06/01 00:34:21;;;;;;;;;;;13.90;99.90;;;;;;5093867;28;19958;-72
2022/06/01 00:36:47;;;;;;;;;;;14.00;99.90;;;;;;5093916;28;19966;-72
2022/06/01 00:39:12;;;;;;;;;;;13.90;99.90;;;;;;5092574;28;19919;-71
2022/06/01 00:41:38;;;;;;;;;;;13.90;99.90;;;;;;5093765;28;19920;-72
2022/06/01 00:44:04;;;;;;;;;;;13.90;99.90;;;;;;5093480;28;19912;-72
2022/06/01 00:46:30;;;;;;;;;;;13.90;99.90;;;;;;5093569;28;20317;-72
2022/06/01 00:48:58;;;;;;;;;;;13.90;99.90;;;;;;5093757;28;19908;-73
2022/06/01 00:51:25;;;;;;;;;;;13.90;99.90;;;;;;5092400;28;19923;-73
2022/06/01 00:53:51;;;;;;;;;;;13.90;99.90;;;;;;5093678;28;19920;-73
2022/06/01 00:56:19;;;;;;;;;;;13.90;99.90;;;;;;5092294;28;19912;-72
2022/06/01 00:58:45;;;;;;;;;;;13.90;99.90;;;;;;5092304;28;19916;-72
2022/06/01 01:01:13;;;;;;;;;;;13.80;99.90;;;;;;5093827;28;20316;-72
2022/06/01 01:03:40;;;;;;;;;;;13.80;99.90;;;;;;5093289;28;20416;-72
2022/06/01 01:06:12;;;;;;;;;;;13.80;99.90;;;;;;5093272;28;19934;-72
2022/06/01 01:08:39;;;;;;;;;;;13.70;99.90;;;;;;5091868;28;20398;-73
2022/06/01 01:11:07;;;;;;;;;;;13.60;99.90;;;;;;5093652;28;20341;-73
2022/06/01 01:13:33;;;;;;;;;;;13.60;99.90;;;;;;5093287;28;20385;-72
2022/06/01 01:15:59;;;;;;;;;;;13.60;99.90;;;;;;5093378;28;19986;-71
2022/06/01 01:18:32;;;;;;;;;;;13.60;99.90;;;;;;5093456;28;19920;-71
2022/06/01 01:21:13;;;;;;;;;;;13.50;99.90;;;;;;5092799;28;19974;-72
2022/06/01 01:23:57;;;;;;;;;;;13.50;99.90;;;;;;5091555;28;19969;-72
2022/06/01 01:26:23;;;;;;;;;;;13.50;99.90;;;;;;5092802;28;20292;-71
2022/06/01 01:28:48;;;;;;;;;;;13.50;99.90;;;;;;5091465;28;19916;-73
2022/06/01 01:31:17;;;;;;;;;;;13.50;99.90;;;;;;5092730;28;20344;-72
2022/06/01 01:33:43;;;;;;;;;;;13.50;99.90;;;;;;5092809;28;19920;-72
2022/06/01 01:36:09;;;;;;;;;;;13.50;99.90;;;;;;5092635;28;19916;-72
2022/06/01 01:38:44;;;;;;;;;;;13.50;99.90;;;;;;5093279;28;20419;-72
2022/06/01 01:41:11;;;;;;;;;;;13.50;99.90;;;;;;5093076;28;19912;-72
2022/06/01 01:43:46;;;;;;;;;;;13.50;99.90;;;;;;5092561;28;19920;-74
2022/06/01 01:46:11;;;;;;;;;;;13.50;99.90;;;;;;5093031;28;19958;-72
2022/06/01 01:48:37;;;;;;;;;;;13.50;99.90;;;;;;5091198;28;19944;-73
2022/06/01 01:51:03;;;;;;;;;;;13.40;99.90;;;;;;5091273;28;19936;-72
2022/06/01 01:53:32;;;;;;;;;;;13.50;99.90;;;;;;5092495;28;19920;-72
2022/06/01 01:56:03;;;;;;;;;;;13.30;99.90;;;;;;5092809;28;19939;-72
2022/06/01 01:58:31;;;;;;;;;;;13.40;99.90;;;;;;5092397;28;19920;-72
2022/06/01 02:01:00;;;;;;;;;;;13.40;99.90;;;;;;5092655;28;19959;-73
2022/06/01 02:03:35;;;;;;;;;;;13.40;99.90;;;;;;5092272;28;19961;-72
2022/06/01 02:06:04;;;;;;;;;;;13.40;99.90;;;;;;5091019;28;19958;-72
2022/06/01 02:08:32;;;;;;;;;;;13.50;99.90;;;;;;5092174;28;20325;-72
2022/06/01 02:13:46;;;;;;;;;;;13.50;99.90;;;;;;5092227;28;19963;-72
2022/06/01 02:16:12;;;;;;;;;;;13.50;99.90;;;;;;5090633;28;20204;-72
2022/06/01 02:18:41;;;;;;;;;;;13.40;99.90;;;;;;5092051;28;19912;-72
2022/06/01 02:21:08;;;;;;;;;;;13.40;99.90;;;;;;5092205;28;20078;-72
2022/06/01 02:23:34;;;;;;;;;;;13.40;99.90;;;;;;5091874;28;19926;-72
2022/06/01 02:26:00;;;;;;;;;;;13.50;99.90;;;;;;5092272;28;19957;-73
2022/06/01 02:28:26;;;;;;;;;;;13.50;99.90;;;;;;5090370;28;19916;-74
2022/06/01 02:30:53;;;;;;;;;;;13.50;99.90;;;;;;5092159;28;19920;-72
2022/06/01 02:33:20;;;;;;;;;;;13.60;99.90;;;;;;5090385;28;19917;-72
2022/06/01 02:35:49;;;;;;;;;;;13.80;99.90;;;;;;5092018;28;19916;-72
2022/06/01 02:38:22;;;;;;;;;;;13.70;99.90;;;;;;5090804;28;19983;-71
2022/06/01 02:40:48;;;;;;;;;;;13.80;99.90;;;;;;5091554;28;20199;-72
2022/06/01 02:43:13;;;;;;;;;;;13.80;99.90;;;;;;5091659;28;20385;-73
2022/06/01 02:45:40;;;;;;;;;;;13.90;99.90;;;;;;5091962;28;20441;-74
2022/06/01 02:48:06;;;;;;;;;;;13.90;99.90;;;;;;5091561;28;20287;-73
2022/06/01 02:50:32;;;;;;;;;;;14.00;99.90;;;;;;5091812;28;20351;-73
2022/06/01 02:52:58;;;;;;;;;;;14.00;99.90;;;;;;5091526;28;19919;-72
2022/06/01 02:55:24;;;;;;;;;;;14.00;99.90;;;;;;5090248;28;20303;-73
2022/06/01 02:57:51;;;;;;;;;;;14.10;99.90;;;;;;5090139;28;19912;-72
2022/06/01 03:00:18;;;;;;;;;;;14.20;99.90;;;;;;5090141;28;19912;-73
2022/06/01 03:02:45;;;;;;;;;;;14.20;99.90;;;;;;5089935;28;19920;-73
2022/06/01 03:05:11;;;;;;;;;;;14.20;99.90;;;;;;5090057;28;20275;-74
2022/06/01 03:07:36;;;;;;;;;;;14.20;99.90;;;;;;5090021;28;20016;-73
2022/06/01 03:10:02;;;;;;;;;;;14.20;99.90;;;;;;5091581;28;20014;-72
2022/06/01 03:12:27;;;;;;;;;;;14.20;99.90;;;;;;5091219;28;19916;-72
2022/06/01 03:14:53;;;;;;;;;;;14.30;99.90;;;;;;5091430;28;20410;-72
2022/06/01 03:17:18;;;;;;;;;;;14.20;99.90;;;;;;5091288;28;19920;-73
2022/06/01 03:19:44;;;;;;;;;;;14.30;99.90;;;;;;5091361;28;20344;-73
2022/06/01 03:22:09;;;;;;;;;;;14.20;99.90;;;;;;5091268;28;19935;-72
2022/06/01 03:24:35;;;;;;;;;;;14.30;99.90;;;;;;5091220;28;20370;-72
2022/06/01 03:27:00;;;;;;;;;;;14.10;99.90;;;;;;5089854;28;19919;-72
2022/06/01 03:29:26;;;;;;;;;;;14.30;99.90;;;;;;5091181;28;19957;-73
2022/06/01 03:31:52;;;;;;;;;;;14.40;99.90;;;;;;5091864;28;20356;-72
2022/06/01 03:34:18;;;;;;;;;;;14.40;99.90;;;;;;5091133;28;20062;-72
2022/06/01 03:36:44;;;;;;;;;;;14.40;99.90;;;;;;5091435;28;20399;-73
2022/06/01 03:39:09;;;;;;;;;;;14.40;99.90;;;;;;5091225;28;19912;-73
2022/06/01 03:41:35;;;;;;;;;;;14.40;99.90;;;;;;5089853;28;19923;-74
2022/06/01 03:46:44;;;;;;;;;;;14.50;99.90;;;;;;5091128;28;19920;-73
2022/06/01 03:49:10;;;;;;;;;;;14.50;99.90;;;;;;5092760;28;19912;-72
2022/06/01 03:51:36;;;;;;;;;;;14.50;99.90;;;;;;5094743;28;19920;-73
2022/06/01 03:54:02;;;;;;;;;;;14.60;99.90;;;;;;5093223;28;20283;-72
2022/06/01 03:56:27;;;;;;;;;;;14.60;99.90;;;;;;5094712;28;19923;-74
2022/06/01 03:58:53;;;;;;;;;;;14.60;99.90;;;;;;5094619;28;19915;-73
2022/06/01 04:01:19;;;;;;;;;;;14.60;99.90;;;;;;5095116;28;19916;-72
2022/06/01 04:03:45;;;;;;;;;;;14.60;99.90;;;;;;5094681;28;20279;-72
2022/06/01 04:06:11;;;;;;;;;;;14.60;99.90;;;;;;5095010;28;19912;-73
2022/06/01 04:08:36;;;;;;;;;;;14.60;99.90;;;;;;5093133;28;19919;-72
2022/06/01 04:11:01;;;;;;;;;;;14.50;99.90;;;;;;5094898;28;20278;-73
2022/06/01 04:13:27;;;;;;;;;;;14.50;99.90;;;;;;5093121;28;19916;-72
2022/06/01 04:15:53;;;;;;;;;;;14.50;99.90;;;;;;5093184;28;20308;-72
2022/06/01 04:18:19;;;;;;;;;;;14.40;99.90;;;;;;5094328;28;20291;-72
2022/06/01 04:20:45;;;;;;;;;;;14.50;99.90;;;;;;5092784;28;19916;-73
2022/06/01 04:23:11;;;;;;;;;;;14.60;99.90;;;;;;5094052;28;19943;-72
2022/06/01 04:25:37;;;;;;;;;;;14.70;99.90;;;;;;5094340;28;19912;-73
2022/06/01 04:28:03;;;;;;;;;;;14.70;99.90;;;;;;5092799;28;20273;-73
2022/06/01 04:30:28;;;;;;;;;;;14.80;99.90;;;;;;5093868;28;19920;-73
2022/06/01 04:32:55;;;;;;;;;;;14.80;99.90;;;;;;5093998;28;20376;-72
2022/06/01 04:35:22;;;;;;;;;;;15.00;99.90;;;;;;5094023;28;19916;-72
2022/06/01 04:37:47;;;;;;;;;;;15.10;99.90;;;;;;5093874;28;19920;-73
2022/06/01 04:40:13;;;;;;;;;;;15.20;99.90;;;;;;5094014;28;19916;-73
2022/06/01 04:42:39;;;;;;;;;;;15.30;99.90;;;;;;5093769;28;19920;-73
2022/06/01 04:45:06;;;;;;;;;;;15.40;99.90;;;;;;5093941;28;19984;-72
2022/06/01 04:47:31;;;;;;;;;;;15.50;99.90;;;;;;5092647;28;20398;-72
2022/06/01 04:49:57;;;;;;;;;;;15.70;99.90;;;;;;5093733;28;19955;-73
2022/06/01 04:52:23;;;;;;;;;;;15.70;99.90;;;;;;5092222;28;19912;-72
2022/06/01 04:54:48;;;;;;;;;;;15.90;99.90;;;;;;5093728;28;19977;-73
2022/06/01 04:57:14;;;;;;;;;;;15.80;99.90;;;;;;5092196;28;20451;-73
2022/06/01 04:59:39;;;;;;;;;;;15.90;99.90;;;;;;5091587;28;19916;-72
2022/06/01 05:02:05;;;;;;;;;;;15.90;99.90;;;;;;5091623;28;20014;-72
2022/06/01 05:04:31;;;;;;;;;;;15.90;99.90;;;;;;5093233;28;19923;-72
2022/06/01 05:06:56;;;;;;;;;;;15.90;99.90;;;;;;5093393;28;20271;-73
2022/06/01 05:09:22;;;;;;;;;;;15.90;99.90;;;;;;5093179;28;20443;-75
2022/06/01 05:11:48;;;;;;;;;;;16.00;99.90;;;;;;5093270;28;19912;-72
2022/06/01 05:14:14;;;;;;;;;;;16.00;99.90;;;;;;5093064;28;19999;-72
2022/06/01 05:16:39;;;;;;;;;;;16.00;99.90;;;;;;5093067;28;20015;-72
2022/06/01 05:19:05;;;;;;;;;;;16.10;99.90;;;;;;5093055;28;19947;-73
2022/06/01 05:21:30;;;;;;;;;;;16.10;99.90;;;;;;5091639;28;19924;-72
2022/06/01 05:23:56;;;;;;;;;;;16.20;99.90;;;;;;5091619;28;20007;-73
2022/06/01 05:26:21;;;;;;;;;;;16.40;99.90;;;;;;5093262;28;19935;-72
2022/06/01 05:28:46;;;;;;;;;;;16.40;99.90;;;;;;5092992;28;20290;-73
2022/06/01 05:31:13;;;;;;;;;;;16.50;99.90;;;;;;5093344;28;19912;-74
2022/06/01 05:33:39;;;;;;;;;;;16.50;99.90;;;;;;5091560;28;19916;-72
2022/06/01 05:36:05;;;;;;;;;;;16.50;99.90;;;;;;5091284;28;20025;-72
2022/06/01 05:38:31;;;;;;;;;;;16.50;99.90;;;;;;5091447;28;19978;-72
2022/06/01 05:40:57;;;;;;;;;;;16.50;99.90;;;;;;5091515;28;19944;-72
2022/06/01 05:43:22;;;;;;;;;;;16.60;99.90;;;;;;5091232;28;20383;-71
2022/06/01 05:45:48;;;;;;;;;;;16.60;99.90;;;;;;5092171;28;19927;-73
2022/06/01 05:48:15;;;;;;;;;;;16.50;99.90;;;;;;5092514;28;19912;-72
2022/06/01 05:50:40;;;;;;;;;;;16.70;99.90;;;;;;5092819;28;19912;-72
2022/06/01 05:53:06;;;;;;;;;;;16.70;99.90;;;;;;5091166;28;19912;-72
2022/06/01 05:55:32;;;;;;;;;;;16.70;99.90;;;;;;5093045;28;20465;-72
2022/06/01 05:57:58;;;;;;;;;;;16.70;99.90;;;;;;5092488;28;19912;-72
2022/06/01 06:00:24;;;;;;;;;;;16.70;99.90;;;;;;5092491;28;20015;-73
2022/06/01 06:02:49;;;;;;;;;;;16.80;99.90;;;;;;5092317;28;20349;-73
2022/06/01 06:07:59;;;;;;;;;;;16.90;99.90;;;;;;5092570;28;19970;-72
2022/06/01 06:10:25;;;;;;;;;;;17.00;99.90;;;;;;5090597;28;20359;-73
2022/06/01 06:12:51;;;;;;;;;;;17.30;99.90;;;;;;5091971;28;19916;-72
2022/06/01 06:15:16;;;;;;;;;;;17.30;99.90;;;;;;5091951;28;19957;-73
2022/06/01 06:17:42;;;;;;;;;;;17.40;99.90;;;;;;5092137;28;19912;-72
2022/06/01 06:20:08;;;;;;;;;;;17.60;99.90;;;;;;5092397;28;19919;-72
2022/06/01 06:22:34;;;;;;;;;;;17.60;99.90;;;;;;5091785;28;20011;-73
2022/06/01 06:24:59;;;;;;;;;;;17.70;99.90;;;;;;5091971;28;19916;-73
2022/06/01 06:27:27;;;;;;;;;;;17.70;99.90;;;;;;5091854;28;19919;-72
2022/06/01 06:29:53;;;;;;;;;;;17.80;99.90;;;;;;5090533;28;19920;-72
2022/06/01 06:32:18;;;;;;;;;;;17.80;99.90;;;;;;5091622;28;19912;-73
2022/06/01 06:34:45;;;;;;;;;;;17.90;99.90;;;;;;5090290;28;19923;-73
2022/06/01 06:37:10;;;;;;;;;;;18.00;99.90;;;;;;5091793;28;19915;-73
2022/06/01 06:39:36;;;;;;;;;;;18.10;99.90;;;;;;5091766;28;19912;-72
2022/06/01 06:42:01;;;;;;;;;;;18.20;99.90;;;;;;5091313;28;19938;-73
2022/06/01 06:44:27;;;;;;;;;;;18.20;99.90;;;;;;5091754;28;19966;-72
2022/06/01 06:46:53;;;;;;;;;;;18.40;99.90;;;;;;5091548;28;19961;-73
2022/06/01 06:49:19;;;;;;;;;;;18.60;99.90;;;;;;5091475;28;20335;-72
2022/06/01 06:51:44;;;;;;;;;;;18.80;99.90;;;;;;5091594;28;19951;-73
2022/06/01 06:54:10;;;;;;;;;;;18.90;99.90;;;;;;5090286;28;19908;-73
2022/06/01 06:56:35;;;;;;;;;;;19.00;99.90;;;;;;5091733;28;20313;-73
2022/06/01 06:59:01;;;;;;;;;;;19.10;99.90;;;;;;5091446;28;19915;-73
2022/06/01 07:01:26;;;;;;;;;;;19.10;99.90;;;;;;5091458;28;20007;-73
2022/06/01 07:03:52;;;;;;;;;;;19.30;99.90;;;;;;5089970;28;19916;-72
2022/06/01 07:06:17;;;;;;;;;;;19.40;99.90;;;;;;5091935;28;19912;-73
2022/06/01 07:08:48;;;;;;;;;;;19.50;99.90;;;;;;5091580;28;20688;-72
2022/06/01 07:11:15;;;;;;;;;;;19.50;99.90;;;;;;5090239;28;20057;-73
2022/06/01 07:13:40;;;;;;;;;;;19.60;99.90;;;;;;5091263;28;20288;-74
2022/06/01 07:16:11;;;;;;;;;;;19.70;99.90;;;;;;5091889;28;19920;-72
2022/06/01 07:18:38;;;;;;;;;;;19.90;99.90;;;;;;5090066;28;19979;-73
2022/06/01 07:21:04;;;;;;;;;;;20.10;99.90;;;;;;5091324;28;20291;-73
2022/06/01 07:23:29;;;;;;;;;;;20.20;99.90;;;;;;5092355;28;19920;-72
2022/06/01 07:25:55;;;;;;;;;;;20.30;99.90;;;;;;5095316;28;20284;-73
2022/06/01 07:28:22;;;;;;;;;;;20.30;99.90;;;;;;5093898;28;19919;-73
2022/06/01 07:30:49;;;;;;;;;;;20.50;99.90;;;;;;5094194;28;19915;-73
2022/06/01 07:33:15;;;;;;;;;;;20.60;99.90;;;;;;5094942;28;19913;-73
2022/06/01 07:35:41;;;;;;;;;;;20.70;99.90;;;;;;5095514;28;20459;-72
2022/06/01 07:43:38;;;;;;;;;;;20.90;99.90;;;;;;5094958;28;19973;-72
2022/06/01 07:46:03;;;;;;;;;;;21.10;99.90;;;;;;5095288;28;19912;-72
2022/06/01 07:48:29;;;;;;;;;;;21.20;99.90;;;;;;5095095;28;20010;-72
2022/06/01 07:50:54;;;;;;;;;;;21.50;99.90;;;;;;5095234;28;19924;-72
2022/06/01 07:53:19;;;;;;;;;;;21.60;99.90;;;;;;5094707;28;19913;-72
2022/06/01 07:55:45;;;;;;;;;;;21.80;99.90;;;;;;5094597;28;20280;-72
2022/06/01 07:58:10;;;;;;;;;;;22.00;99.90;;;;;;5094752;28;19951;-73
2022/06/01 08:00:36;;;;;;;;;;;22.20;99.90;;;;;;5094595;28;19935;-72
2022/06/01 08:03:03;;;;;;;;;;;22.40;99.90;;;;;;5094594;28;19916;-73
2022/06/01 08:05:29;;;;;;;;;;;22.50;99.90;;;;;;5093218;28;19971;-73
2022/06/01 08:07:54;;;;;;;;;;;22.60;99.90;;;;;;5094449;28;19963;-74
2022/06/01 08:10:20;;;;;;;;;;;22.70;99.90;;;;;;5094482;28;19939;-73
2022/06/01 08:15:31;;;;;;;;;;;23.20;99.90;;;;;;5094919;28;19973;-73
2022/06/01 08:17:57;;;;;;;;;;;23.40;99.90;;;;;;5094234;28;20356;-73
2022/06/01 08:20:23;;;;;;;;;;;23.70;99.90;;;;;;5092928;28;19935;-74
2022/06/01 08:22:49;;;;;;;;;;;23.90;99.90;;;;;;5093816;28;20359;-73
2022/06/01 08:25:18;;;;;;;;;;;24.10;99.90;;;;;;5093944;28;20007;-73
2022/06/01 08:27:44;;;;;;;;;;;24.30;99.90;;;;;;5092656;28;20010;-73
2022/06/01 08:30:10;;;;;;;;;;;24.60;99.90;;;;;;5094199;28;20348;-73
2022/06/01 08:32:36;;;;;;;;;;;24.80;99.90;;;;;;5093846;28;20053;-74
2022/06/01 08:35:06;;;;;;;;;;;25.00;99.90;;;;;;5092592;28;19935;-73
2022/06/01 08:37:32;;;;;;;;;;;25.10;99.90;;;;;;5093773;28;19912;-74
2022/06/01 08:39:58;;;;;;;;;;;25.30;99.90;;;;;;5093869;28;19919;-72
2022/06/01 08:42:24;;;;;;;;;;;25.40;99.90;;;;;;5092562;28;19913;-72
2022/06/01 08:44:50;;;;;;;;;;;25.40;99.90;;;;;;5092357;28;19916;-73
2022/06/01 08:47:27;;;;;;;;;;;25.50;99.90;;;;;;5093944;28;19981;-72
2022/06/01 08:49:54;;;;;;;;;;;25.60;99.90;;;;;;5092471;28;19908;-73
2022/06/01 08:52:21;;;;;;;;;;;25.70;99.90;;;;;;5093754;28;20007;-73
2022/06/01 08:54:47;;;;;;;;;;;25.90;99.90;;;;;;5093823;28;19915;-73
2022/06/01 08:57:23;;;;;;;;;;;26.10;99.90;;;;;;5093985;28;19916;-73
2022/06/01 09:00:04;;;;;;;;;;;26.10;99.90;;;;;;5093607;28;19969;-76
2022/06/01 09:02:43;;;;;;;;;;;26.20;99.90;;;;;;5093369;28;19927;-74
2022/06/01 09:05:16;;;;;;;;;;;26.40;99.90;;;;;;5093438;28;19922;-73
2022/06/01 09:07:48;;;;;;;;;;;26.40;99.90;;;;;;5093235;28;20254;-73
2022/06/01 09:10:23;;;;;;;;;;;26.50;99.90;;;;;;5093761;28;20323;-73
2022/06/01 09:12:52;;;;;;;;;;;26.60;99.90;;;;;;5093152;28;20017;-73
2022/06/01 09:15:21;;;;;;;;;;;26.50;99.90;;;;;;5093361;28;20343;-73
2022/06/01 09:17:47;;;;;;;;;;;26.50;99.90;;;;;;5093171;28;19916;-73
2022/06/01 09:23:00;;;;;;;;;;;25.70;99.90;;;;;;5093020;28;19930;-72
2022/06/01 09:25:27;;;;;;;;;;;25.30;99.90;;;;;;5093083;28;19934;-73
2022/06/01 09:27:53;;;;;;;;;;;25.40;99.90;;;;;;5092662;28;20011;-73
2022/06/01 09:30:21;;;;;;;;;;;25.80;99.90;;;;;;5093180;28;19923;-72
2022/06/01 09:33:05;;;;;;;;;;;26.00;99.90;;;;;;5091541;28;19912;-73
2022/06/01 09:35:39;;;;;;;;;;;26.30;99.90;;;;;;5092648;28;20016;-74
2022/06/01 09:38:11;;;;;;;;;;;26.60;99.90;;;;;;5092855;28;19919;-73
2022/06/01 09:40:36;;;;;;;;;;;26.80;99.90;;;;;;5093123;28;20461;-73
2022/06/01 09:43:03;;;;;;;;;;;27.00;99.90;;;;;;5092568;28;19947;-73
2022/06/01 09:45:37;;;;;;;;;;;27.20;99.90;;;;;;5092927;28;19912;-73
2022/06/01 09:48:14;;;;;;;;;;;27.50;99.90;;;;;;5092144;28;19912;-73
2022/06/01 09:50:42;;;;;;;;;;;27.70;99.90;;;;;;5091679;28;19938;-72
2022/06/01 09:53:11;;;;;;;;;;;27.90;99.90;;;;;;5091412;28;19919;-74
2022/06/01 09:55:49;;;;;;;;;;;28.10;99.90;;;;;;5092894;28;20429;-73
2022/06/01 10:06:05;;;;;;;;;;;27.90;99.90;;;;;;5092354;28;19933;-72
2022/06/01 10:06:47;;;;;;;;;;;28.80;99.50;;;;;;5092516;28;20390;-73
2022/06/01 10:09:18;;;;;;;;;;;28.90;98.70;;;;;;5092021;28;19908;-71
2022/06/01 10:11:46;;;;;;;;;;;28.90;98.50;;;;;;5092104;28;20368;-73
2022/06/01 10:14:12;;;;;;;;;;;28.80;98.10;;;;;;5092050;28;20428;-73
2022/06/01 10:16:52;;;;;;;;;;;28.40;98.80;;;;;;5091803;28;19912;-73
2022/06/01 10:19:22;;;;;;;;;;;28.20;98.70;;;;;;5091767;28;19908;-73
2022/06/01 10:21:48;;;;;;;;;;;28.20;98.60;;;;;;5091839;28;20357;-73
2022/06/01 10:24:17;;;;;;;;;;;28.50;98.20;;;;;;5091523;28;20010;-71
2022/06/01 10:26:50;;;;;;;;;;;28.90;98.20;;;;;;5090162;28;19919;-71
2022/06/01 10:29:19;;;;;;;;;;;29.40;97.60;;;;;;5091337;28;20157;-72
2022/06/01 10:31:51;;;;;;;;;;;29.60;96.50;;;;;;5090244;28;20380;-72
2022/06/01 10:34:26;;;;;;;;;;;29.60;95.90;;;;;;5091534;28;19908;-72
2022/06/01 10:37:00;;;;;;;;;;;29.30;95.90;;;;;;5090346;28;20363;-72
2022/06/01 10:39:31;;;;;;;;;;;28.40;95.80;;;;;;5090342;28;20244;-72
2022/06/01 10:42:06;;;;;;;;;;;28.40;96.90;;;;;;5091889;28;20020;-72
2022/06/01 10:44:41;;;;;;;;;;;28.70;96.80;;;;;;5091454;28;20227;-72
2022/06/01 10:47:20;;;;;;;;;;;29.00;95.60;;;;;;5091697;28;20283;-71
2022/06/01 10:49:46;;;;;;;;;;;29.30;95.20;;;;;;5091593;28;19908;-72
2022/06/01 10:52:31;;;;;;;;;;;29.60;95.10;;;;;;5091769;28;19920;-73
2022/06/01 10:55:15;;;;;;;;;;;29.70;94.50;;;;;;5091676;28;19908;-73
2022/06/01 10:57:44;;;;;;;;;;;29.60;94.60;;;;;;5091093;28;20084;-72
2022/06/01 11:00:13;;;;;;;;;;;29.70;95.10;;;;;;5091365;28;20331;-72
2022/06/01 11:02:47;;;;;;;;;;;29.90;94.40;;;;;;5089884;28;19916;-72
2022/06/01 11:05:19;;;;;;;;;;;29.90;91.90;;;;;;5091188;28;20244;-72
2022/06/01 11:08:08;;;;;;;;;;;30.10;91.60;;;;;;5091105;28;20012;-72
2022/06/01 11:10:48;;;;;;;;;;;30.20;91.00;;;;;;5079222;28;20324;-72
2022/06/01 11:13:17;;;;;;;;;;;30.50;91.90;;;;;;5091257;28;20423;-72
2022/06/01 11:15:54;;;;;;;;;;;30.60;91.60;;;;;;5091647;28;19914;-72
2022/06/01 11:18:32;;;;;;;;;;;30.70;91.40;;;;;;5089691;28;20394;-72
2022/06/01 11:21:01;;;;;;;;;;;30.10;92.10;;;;;;5091201;28;19920;-73
2022/06/01 11:23:33;;;;;;;;;;;29.20;91.70;;;;;;5089800;28;19935;-74
2022/06/01 11:26:05;;;;;;;;;;;29.00;92.20;;;;;;5091300;28;19911;-73
2022/06/01 11:28:43;;;;;;;;;;;29.10;92.40;;;;;;5091067;28;19912;-72
2022/06/01 11:31:08;;;;;;;;;;;29.10;92.60;;;;;;5091350;28;19912;-73
2022/06/01 11:33:37;;;;;;;;;;;29.30;92.00;;;;;;5091480;28;20289;-72
2022/06/01 11:36:09;;;;;;;;;;;28.90;91.50;;;;;;5091401;28;20418;-72
2022/06/01 11:38:37;;;;;;;;;;;28.00;91.90;;;;;;5091060;28;19924;-73
2022/06/01 11:41:13;;;;;;;;;;;27.80;92.30;;;;;;5091451;28;20336;-72
2022/06/01 11:43:44;;;;;;;;;;;28.00;92.80;;;;;;5090954;28;19924;-73
2022/06/01 11:46:22;;;;;;;;;;;28.30;92.90;;;;;;5090850;28;19912;-72
2022/06/01 11:48:57;;;;;;;;;;;28.30;91.40;;;;;;5090994;28;20291;-72
2022/06/01 11:51:25;;;;;;;;;;;28.40;91.20;;;;;;5089621;28;19995;-72
2022/06/01 11:53:56;;;;;;;;;;;28.40;91.40;;;;;;5090899;28;19916;-72
2022/06/01 11:56:24;;;;;;;;;;;28.60;91.20;;;;;;5089557;28;19913;-73
2022/06/01 11:59:02;;;;;;;;;;;29.00;91.00;;;;;;5090761;28;20361;-72
2022/06/01 12:01:47;;;;;;;;;;;29.20;90.10;;;;;;5090980;28;19960;-72
2022/06/01 12:04:12;;;;;;;;;;;29.30;87.90;;;;;;5090465;28;19920;-72
2022/06/01 12:06:56;;;;;;;;;;;29.40;86.40;;;;;;5090561;28;19920;-72
2022/06/01 12:09:25;;;;;;;;;;;29.20;86.30;;;;;;5091147;28;19957;-72
2022/06/01 12:11:50;;;;;;;;;;;29.10;86.40;;;;;;5094219;28;19924;-72
2022/06/01 12:14:22;;;;;;;;;;;28.50;88.10;;;;;;5092726;28;19999;-72
2022/06/01 12:17:07;;;;;;;;;;;27.80;89.10;;;;;;5094128;28;19916;-72
2022/06/01 12:19:33;;;;;;;;;;;27.40;90.00;;;;;;5092737;28;19915;-72
2022/06/01 12:22:02;;;;;;;;;;;27.20;90.20;;;;;;5092511;28;19928;-72
2022/06/01 12:30:08;;;;;;;;;;;27.40;90.60;;;;;;5093820;28;20000;-72
2022/06/01 12:32:52;;;;;;;;;;;27.60;90.50;;;;;;5092525;28;19957;-72
2022/06/01 12:35:19;;;;;;;;;;;27.80;90.10;;;;;;5092674;28;20258;-74
2022/06/01 12:37:51;;;;;;;;;;;27.80;90.20;;;;;;5093842;28;20390;-72
2022/06/01 12:40:19;;;;;;;;;;;27.60;87.70;;;;;;5094034;28;19916;-72
2022/06/01 12:42:55;;;;;;;;;;;27.30;86.50;;;;;;5093596;28;19916;-72
2022/06/01 12:45:22;;;;;;;;;;;27.20;85.90;;;;;;5093776;28;19916;-71
2022/06/01 12:47:54;;;;;;;;;;;27.10;89.20;;;;;;5093554;28;19919;-71
2022/06/01 12:50:20;;;;;;;;;;;27.00;89.80;;;;;;5093967;28;20114;-71
2022/06/01 12:52:47;;;;;;;;;;;26.90;90.10;;;;;;5093359;28;19919;-72
2022/06/01 12:55:22;;;;;;;;;;;26.70;89.80;;;;;;5093813;28;19992;-71
2022/06/01 12:57:50;;;;;;;;;;;26.50;88.00;;;;;;5093447;28;19942;-72
2022/06/01 13:00:15;;;;;;;;;;;26.40;87.90;;;;;;5093148;28;19913;-71
2022/06/01 13:02:41;;;;;;;;;;;26.40;90.10;;;;;;5091997;28;19919;-72
2022/06/01 13:05:09;;;;;;;;;;;26.40;90.00;;;;;;5093431;28;19916;-72
2022/06/01 13:07:40;;;;;;;;;;;26.30;89.00;;;;;;5093230;28;20392;-73
2022/06/01 13:10:07;;;;;;;;;;;26.30;88.00;;;;;;5092021;28;19912;-72
2022/06/01 13:12:33;;;;;;;;;;;26.30;87.00;;;;;;5093133;28;20383;-72
2022/06/01 13:15:09;;;;;;;;;;;26.30;87.40;;;;;;5093129;28;19912;-72
2022/06/01 13:17:43;;;;;;;;;;;26.40;85.50;;;;;;5091860;28;19916;-72
2022/06/01 13:20:09;;;;;;;;;;;26.40;86.30;;;;;;5093533;28;20445;-72
2022/06/01 13:22:38;;;;;;;;;;;26.50;86.50;;;;;;5092103;28;19928;-72
2022/06/01 13:25:05;;;;;;;;;;;26.40;87.70;;;;;;5093254;28;20014;-72
2022/06/01 13:27:33;;;;;;;;;;;26.20;86.10;;;;;;5093011;28;20426;-73
2022/06/01 13:29:59;;;;;;;;;;;26.10;84.90;;;;;;5093109;28;19912;-72
2022/06/01 13:32:28;;;;;;;;;;;26.00;87.40;;;;;;5092676;28;19922;-72
2022/06/01 13:34:54;;;;;;;;;;;26.10;87.00;;;;;;5091277;28;20214;-71
2022/06/01 13:37:25;;;;;;;;;;;26.20;84.80;;;;;;5092856;28;20012;-66
2022/06/01 13:39:53;;;;;;;;;;;26.20;84.80;;;;;;5074324;28;19916;-64
2022/06/01 13:42:34;;;;;;;;;;;26.20;84.80;;;;;;5072355;28;19912;-64
2022/06/01 13:45:02;;;;;;;;;;;26.20;86.10;;;;;;5078756;28;19916;-64
2022/06/01 13:47:31;;;;;;;;;;;26.20;85.30;;;;;;5076157;28;19917;-65
2022/06/01 13:50:03;;;;;;;;;;;26.20;83.40;;;;;;5080743;28;19940;-66
2022/06/01 13:52:29;;;;;;;;;;;25.90;83.70;;;;;;5072188;28;19920;-64
2022/06/01 13:55:13;;;;;;;;;;;25.80;85.60;;;;;;5081175;28;19912;-64
2022/06/01 13:57:51;;;;;;;;;;;25.90;85.40;;;;;;5079702;28;19966;-67
2022/06/01 14:00:18;;;;;;;;;;;25.90;85.30;;;;;;5077360;28;20280;-65
2022/06/01 14:02:53;;;;;;;;;;;25.90;82.50;;;;;;5070374;28;20296;-64
2022/06/01 14:05:20;;;;;;;;;;;25.90;83.70;;;;;;5080683;28;19963;-65
2022/06/01 14:07:55;;;;;;;;;;;25.90;82.00;;;;;;5089454;28;19918;-64
2022/06/01 14:10:30;;;;;;;;;;;25.90;82.60;;;;;;5071740;28;20249;-63
2022/06/01 14:12:55;;;;;;;;;;;25.80;81.70;;;;;;5079849;28;19916;-65
2022/06/01 14:15:21;;;;;;;;;;;25.70;82.90;;;;;;5089409;28;19923;-64
2022/06/01 14:17:46;;;;;;;;;;;25.70;82.50;;;;;;5072780;28;20019;-64
2022/06/01 14:20:12;;;;;;;;;;;25.70;82.80;;;;;;5078760;28;19919;-66
2022/06/01 14:22:39;;;;;;;;;;;25.70;85.10;;;;;;5083392;28;19924;-63
2022/06/01 14:30:33;;;;;;;;;;;25.90;86.80;;;;;;5080436;28;19919;-65
2022/06/01 14:33:01;;;;;;;;;;;25.80;88.70;;;;;;5082653;28;20372;-65
2022/06/01 14:35:29;;;;;;;;;;;25.90;89.00;;;;;;5090330;28;20378;-64
2022/06/01 14:37:54;;;;;;;;;;;25.90;87.90;;;;;;5091781;28;19912;-65
2022/06/01 14:40:20;;;;;;;;;;;25.90;88.50;;;;;;5078364;28;19923;-67
2022/06/01 14:42:45;;;;;;;;;;;25.80;89.10;;;;;;5082150;28;19916;-65
2022/06/01 14:45:11;;;;;;;;;;;25.80;90.00;;;;;;5080480;28;19956;-65
2022/06/01 14:47:36;;;;;;;;;;;25.80;88.90;;;;;;5080477;28;19925;-65
2022/06/01 14:50:02;;;;;;;;;;;25.80;86.90;;;;;;5082053;28;19927;-64
2022/06/01 14:52:28;;;;;;;;;;;25.70;86.70;;;;;;5076291;28;19923;-64
2022/06/01 14:54:54;;;;;;;;;;;25.70;88.30;;;;;;5077553;28;19913;-65
2022/06/01 14:57:20;;;;;;;;;;;25.70;88.60;;;;;;5071274;28;20392;-66